createdAt,value
2019-05-12T00:00:40.671Z,99.90
2019-05-12T00:03:11.614Z,99.90
2019-05-12T00:05:42.418Z,99.90
2019-05-12T00:08:12.877Z,99.90
2019-05-12T00:10:43.434Z,99.90
2019-05-12T00:13:14.157Z,99.90
2019-05-12T00:15:47.673Z,99.90
2019-05-12T00:18:18.124Z,99.90
2019-05-12T00:20:49.515Z,99.90
2019-05-12T00:23:26.904Z,99.90
2019-05-12T00:25:53.397Z,99.90
2019-05-12T00:28:24.600Z,99.90
2019-05-12T00:30:55.331Z,99.90
2019-05-12T00:33:27.997Z,99.90
2019-05-12T00:35:58.735Z,99.90
2019-05-12T00:38:30.163Z,99.90
2019-05-12T00:41:01.357Z,99.90
2019-05-12T00:43:32.187Z,99.90
2019-05-12T00:46:03.243Z,99.90
2019-05-12T00:48:34.187Z,99.90
2019-05-12T00:51:07.590Z,99.90
2019-05-12T00:53:43.161Z,99.90
2019-05-12T00:56:10.663Z,99.90
2019-05-12T00:58:41.855Z,99.90
2019-05-12T01:01:12.593Z,99.90
2019-05-12T01:03:43.047Z,99.90
2019-05-12T01:06:14.066Z,99.90
2019-05-12T01:08:45.197Z,99.90
2019-05-12T01:11:17.720Z,99.90
2019-05-12T01:13:48.909Z,99.90
2019-05-12T01:16:19.427Z,99.90
2019-05-12T01:18:50.002Z,99.90
2019-05-12T01:21:20.744Z,99.90
2019-05-12T01:23:57.093Z,99.90
2019-05-12T01:26:23.661Z,99.90
2019-05-12T01:28:54.778Z,99.90
2019-05-12T01:31:29.155Z,99.90
2019-05-12T01:33:59.462Z,99.90
2019-05-12T01:36:30.500Z,99.90
2019-05-12T01:39:01.913Z,99.90
2019-05-12T01:41:34.030Z,99.90
2019-05-12T01:44:04.474Z,99.90
2019-05-12T01:46:38.144Z,99.90
2019-05-12T01:49:08.472Z,99.90
2019-05-12T01:51:40.870Z,99.90
2019-05-12T01:54:14.877Z,99.90
2019-05-12T01:56:42.956Z,99.90
2019-05-12T01:59:12.690Z,99.90
2019-05-12T02:01:43.217Z,99.90
2019-05-12T02:04:13.998Z,99.90
2019-05-12T02:06:45.099Z,99.90
2019-05-12T02:09:18.692Z,99.90
2019-05-12T02:11:49.842Z,99.90
2019-05-12T02:14:20.598Z,99.90
2019-05-12T02:16:51.522Z,99.90
2019-05-12T02:19:21.856Z,99.90
2019-05-12T02:21:52.392Z,99.90
2019-05-12T02:24:27.365Z,99.90
2019-05-12T02:26:57.869Z,99.90
2019-05-12T02:29:28.911Z,99.90
2019-05-12T02:32:00.063Z,99.90
2019-05-12T02:34:31.227Z,99.90
2019-05-12T02:37:05.251Z,99.90
2019-05-12T02:39:35.231Z,99.90
2019-05-12T02:42:06.697Z,99.90
2019-05-12T02:44:37.436Z,99.90
2019-05-12T02:47:07.700Z,99.90
2019-05-12T02:49:38.640Z,99.90
2019-05-12T02:52:08.596Z,99.90
2019-05-12T02:54:51.794Z,99.90
2019-05-12T02:57:15.227Z,99.90
2019-05-12T02:59:48.341Z,99.90
2019-05-12T03:02:20.800Z,99.90
2019-05-12T03:04:55.024Z,99.90
2019-05-12T03:07:28.810Z,99.90
2019-05-12T03:10:04.996Z,99.90
2019-05-12T03:12:36.071Z,99.90
2019-05-12T03:15:08.236Z,99.90
2019-05-12T03:17:39.783Z,99.90
2019-05-12T03:20:10.432Z,99.90
2019-05-12T03:22:40.961Z,99.90
2019-05-12T03:25:23.966Z,99.90
2019-05-12T03:27:44.760Z,99.90
2019-05-12T03:30:19.193Z,99.90
2019-05-12T03:32:48.243Z,99.90
2019-05-12T03:35:19.863Z,99.90
2019-05-12T03:37:50.335Z,99.90
2019-05-12T03:40:24.652Z,99.90
2019-05-12T03:42:54.974Z,99.90
2019-05-12T03:45:25.340Z,99.90
2019-05-12T03:47:57.422Z,99.90
2019-05-12T03:50:27.901Z,99.90
2019-05-12T03:52:58.909Z,99.90
2019-05-12T03:55:35.966Z,99.90
2019-05-12T03:58:04.466Z,99.90
2019-05-12T04:00:35.697Z,99.90
2019-05-12T04:03:08.082Z,99.90
2019-05-12T04:05:38.957Z,99.90
2019-05-12T04:08:09.702Z,99.90
2019-05-12T04:10:40.221Z,99.90
2019-05-12T04:13:10.743Z,99.90
2019-05-12T04:15:41.484Z,99.90
2019-05-12T04:18:15.484Z,99.90
2019-05-12T04:20:45.366Z,99.90
2019-05-12T04:23:15.912Z,99.90
2019-05-12T04:25:52.652Z,99.90
2019-05-12T04:28:19.695Z,99.90
2019-05-12T04:30:50.436Z,99.90
2019-05-12T04:33:20.962Z,99.90
2019-05-12T04:35:55.180Z,99.90
2019-05-12T04:38:24.869Z,99.90
2019-05-12T04:40:56.067Z,99.90
2019-05-12T04:43:26.936Z,99.90
2019-05-12T04:45:57.725Z,99.90
2019-05-12T04:48:28.459Z,99.90
2019-05-12T04:50:58.816Z,99.90
2019-05-12T04:53:29.538Z,99.90
2019-05-12T04:56:10.966Z,99.90
2019-05-12T04:58:35.060Z,99.90
2019-05-12T05:01:06.482Z,99.90
2019-05-12T05:03:36.991Z,99.90
2019-05-12T05:06:08.128Z,99.90
2019-05-12T05:08:39.078Z,99.90
2019-05-12T05:11:09.613Z,99.90
2019-05-12T05:13:44.175Z,99.90
2019-05-12T05:16:14.523Z,99.90
2019-05-12T05:18:45.394Z,99.90
2019-05-12T05:21:16.252Z,99.90
2019-05-12T05:23:46.744Z,99.90
2019-05-12T05:26:24.582Z,99.90
2019-05-12T05:28:50.716Z,99.90
2019-05-12T05:31:24.167Z,99.90
2019-05-12T05:33:54.642Z,99.90
2019-05-12T05:36:25.384Z,99.90
2019-05-12T05:38:57.337Z,99.90
2019-05-12T05:41:28.276Z,99.90
2019-05-12T05:43:58.800Z,99.90
2019-05-12T05:46:29.569Z,99.90
2019-05-12T05:49:00.914Z,99.90
2019-05-12T05:51:33.492Z,99.90
2019-05-12T05:54:05.475Z,99.90
2019-05-12T05:56:42.398Z,99.90
2019-05-12T05:59:08.579Z,99.90
2019-05-12T06:01:40.036Z,99.90
2019-05-12T06:04:13.683Z,99.90
2019-05-12T06:06:50.568Z,99.90
2019-05-12T06:09:17.273Z,99.90
2019-05-12T06:11:47.932Z,99.90
2019-05-12T06:14:19.363Z,99.90
2019-05-12T06:16:49.695Z,99.90
2019-05-12T06:19:23.413Z,99.90
2019-05-12T06:21:53.415Z,99.90
2019-05-12T06:24:24.315Z,99.90
2019-05-12T06:27:00.364Z,99.90
2019-05-12T06:29:27.895Z,99.90
2019-05-12T06:31:59.967Z,99.90
2019-05-12T06:34:31.414Z,99.90
2019-05-12T06:37:10.799Z,99.90
2019-05-12T06:39:34.480Z,99.90
2019-05-12T06:42:12.562Z,99.90
2019-05-12T06:44:37.389Z,99.90
2019-05-12T06:47:08.587Z,99.90
2019-05-12T06:49:39.510Z,99.90
2019-05-12T06:52:09.667Z,99.90
2019-05-12T06:54:44.574Z,99.90
2019-05-12T06:57:22.269Z,99.90
2019-05-12T06:59:50.979Z,99.90
2019-05-12T07:02:18.757Z,99.90
2019-05-12T07:04:54.221Z,99.90
2019-05-12T07:07:25.602Z,99.90
2019-05-12T07:10:02.220Z,99.90
2019-05-12T07:12:36.674Z,99.90
2019-05-12T07:15:00.671Z,99.90
2019-05-12T07:17:45.501Z,99.90
2019-05-12T07:20:16.661Z,99.90
2019-05-12T07:22:48.821Z,99.90
2019-05-12T07:25:22.877Z,99.90
2019-05-12T07:27:59.899Z,99.90
2019-05-12T07:30:31.870Z,99.90
2019-05-12T07:33:04.513Z,99.90
2019-05-12T07:35:35.795Z,99.90
2019-05-12T07:38:06.114Z,99.90
2019-05-12T07:40:38.049Z,99.90
2019-05-12T07:43:16.175Z,99.90
2019-05-12T07:45:46.923Z,99.90
2019-05-12T07:48:18.135Z,99.90
2019-05-12T07:50:50.241Z,99.90
2019-05-12T07:53:23.347Z,99.90
2019-05-12T07:55:53.766Z,99.90
2019-05-12T07:58:24.286Z,99.90
2019-05-12T08:01:02.606Z,99.90
2019-05-12T08:03:27.677Z,99.90
2019-05-12T08:06:01.684Z,99.90
2019-05-12T08:08:30.505Z,99.90
2019-05-12T08:11:04.194Z,99.90
2019-05-12T08:13:37.858Z,99.90
2019-05-12T08:16:07.508Z,99.90
2019-05-12T08:18:41.024Z,99.90
2019-05-12T08:21:13.814Z,99.90
2019-05-12T08:23:44.612Z,99.90
2019-05-12T08:26:18.521Z,99.90
2019-05-12T08:28:47.752Z,99.90
2019-05-12T08:31:25.863Z,99.90
2019-05-12T08:33:53.815Z,99.90
2019-05-12T08:36:24.480Z,99.90
2019-05-12T08:38:55.414Z,99.90
2019-05-12T08:41:25.502Z,99.90
2019-05-12T08:43:58.501Z,99.90
2019-05-12T08:46:28.810Z,99.90
2019-05-12T08:49:02.194Z,99.90
2019-05-12T08:51:33.942Z,99.90
2019-05-12T08:54:07.843Z,99.90
2019-05-12T08:56:38.166Z,99.90
2019-05-12T08:59:12.994Z,99.90
2019-05-12T09:01:43.771Z,99.90
2019-05-12T09:04:18.074Z,99.90
2019-05-12T09:06:50.251Z,99.90
2019-05-12T09:09:19.640Z,99.90
2019-05-12T09:11:50.586Z,99.90
2019-05-12T09:14:23.742Z,99.90
2019-05-12T09:17:02.019Z,99.90
2019-05-12T09:19:27.258Z,99.90
2019-05-12T09:21:57.601Z,99.90
2019-05-12T09:24:28.376Z,99.90
2019-05-12T09:27:04.971Z,99.90
2019-05-12T09:29:31.496Z,99.90
2019-05-12T09:32:05.461Z,99.90
2019-05-12T09:34:36.033Z,99.90
2019-05-12T09:37:06.522Z,99.90
2019-05-12T09:39:42.647Z,99.90
2019-05-12T09:42:10.089Z,99.90
2019-05-12T09:44:41.409Z,99.90
2019-05-12T09:47:23.307Z,99.90
2019-05-12T09:49:45.923Z,99.90
2019-05-12T09:52:22.163Z,99.90
2019-05-12T09:54:48.604Z,99.90
2019-05-12T09:57:19.125Z,99.90
2019-05-12T09:59:57.273Z,99.90
2019-05-12T10:02:23.771Z,99.90
2019-05-12T10:04:59.086Z,99.90
2019-05-12T10:07:27.877Z,99.90
2019-05-12T10:09:59.197Z,99.90
2019-05-12T10:12:36.605Z,99.90
2019-05-12T10:15:04.295Z,99.30
2019-05-12T10:17:34.913Z,96.50
2019-05-12T10:20:06.536Z,93.90
2019-05-12T10:22:40.273Z,94.50
2019-05-12T10:25:14.387Z,96.10
2019-05-12T10:27:49.385Z,99.50
2019-05-12T10:30:20.585Z,97.20
2019-05-12T10:32:51.033Z,95.00
2019-05-12T10:35:24.533Z,95.30
2019-05-12T10:37:54.803Z,96.30
2019-05-12T10:40:25.547Z,96.40
2019-05-12T10:42:56.088Z,97.30
2019-05-12T10:45:29.686Z,97.40
2019-05-12T10:47:59.894Z,97.20
2019-05-12T10:50:29.933Z,97.70
2019-05-12T10:53:01.488Z,97.00
2019-05-12T10:55:33.523Z,97.40
2019-05-12T10:58:07.254Z,96.40
2019-05-12T11:00:38.641Z,95.80
2019-05-12T11:03:12.160Z,94.90
2019-05-12T11:05:44.057Z,93.90
2019-05-12T11:08:15.549Z,93.70
2019-05-12T11:10:50.299Z,93.20
2019-05-12T11:13:19.075Z,93.60
2019-05-12T11:15:50.232Z,93.30
2019-05-12T11:18:26.024Z,93.50
2019-05-12T11:20:55.520Z,93.10
2019-05-12T11:23:26.095Z,91.30
2019-05-12T11:25:57.273Z,89.40
2019-05-12T11:28:27.608Z,88.90
2019-05-12T11:30:58.134Z,90.20
2019-05-12T11:33:29.492Z,89.10
2019-05-12T11:36:00.430Z,90.20
2019-05-12T11:38:33.579Z,86.90
2019-05-12T11:41:04.244Z,84.80
2019-05-12T11:43:35.924Z,84.50
2019-05-12T11:46:06.459Z,85.40
2019-05-12T11:48:40.311Z,84.30
2019-05-12T11:51:09.778Z,77.70
2019-05-12T11:53:40.742Z,77.00
2019-05-12T11:56:13.755Z,71.30
2019-05-12T11:58:47.431Z,69.60
2019-05-12T12:01:18.670Z,64.20
2019-05-12T12:03:49.620Z,63.90
2019-05-12T12:06:20.762Z,65.20
2019-05-12T12:08:53.521Z,68.90
2019-05-12T12:11:27.669Z,67.20
2019-05-12T12:14:00.357Z,66.90
2019-05-12T12:16:29.460Z,59.50
2019-05-12T12:19:02.618Z,57.80
2019-05-12T12:21:35.110Z,56.10
2019-05-12T12:24:05.145Z,55.50
2019-05-12T12:26:37.330Z,53.30
2019-05-12T12:29:08.274Z,53.00
2019-05-12T12:31:49.841Z,52.80
2019-05-12T12:34:30.249Z,50.60
2019-05-12T12:37:03.302Z,48.50
2019-05-12T12:39:33.902Z,48.20
2019-05-12T12:42:05.063Z,49.10
2019-05-12T12:44:35.591Z,51.00
2019-05-12T12:47:06.300Z,52.60
2019-05-12T12:49:42.544Z,54.30
2019-05-12T12:52:09.070Z,52.90
2019-05-12T12:54:39.767Z,50.10
2019-05-12T12:57:13.458Z,46.70
2019-05-12T12:59:50.977Z,45.00
2019-05-12T13:02:15.923Z,46.20
2019-05-12T13:04:50.204Z,47.60
2019-05-12T13:07:18.575Z,46.10
2019-05-12T13:09:48.895Z,46.70
2019-05-12T13:12:19.897Z,48.10
2019-05-12T13:14:53.220Z,47.60
2019-05-12T13:17:29.023Z,47.30
2019-05-12T13:19:58.854Z,47.20
2019-05-12T13:22:29.821Z,43.90
2019-05-12T13:25:04.405Z,43.50
2019-05-12T13:27:36.802Z,43.40
2019-05-12T13:30:18.521Z,41.80
2019-05-12T13:32:40.499Z,41.50
2019-05-12T13:35:16.491Z,43.10
2019-05-12T13:37:44.287Z,42.00
2019-05-12T13:40:16.241Z,42.00
2019-05-12T13:42:46.987Z,41.80
2019-05-12T13:45:17.875Z,41.70
2019-05-12T13:47:48.680Z,41.90
2019-05-12T13:50:26.212Z,42.10
2019-05-12T13:52:54.057Z,43.10
2019-05-12T13:55:24.983Z,42.60
2019-05-12T13:57:57.752Z,42.10
2019-05-12T14:00:27.843Z,42.80
2019-05-12T14:03:04.866Z,41.70
2019-05-12T14:05:31.624Z,40.40
2019-05-12T14:08:03.946Z,40.40
2019-05-12T14:10:37.645Z,40.60
2019-05-12T14:13:08.344Z,39.10
2019-05-12T14:15:39.494Z,39.20
2019-05-12T14:18:15.584Z,39.80
2019-05-12T14:20:44.951Z,40.50
2019-05-12T14:23:15.426Z,39.70
2019-05-12T14:25:46.984Z,40.20
2019-05-12T14:28:17.701Z,40.20
2019-05-12T14:30:51.572Z,39.50
2019-05-12T14:33:20.055Z,40.50
2019-05-12T14:35:53.552Z,41.20
2019-05-12T14:38:29.661Z,41.50
2019-05-12T14:41:01.141Z,42.30
2019-05-12T14:43:29.290Z,43.20
2019-05-12T14:46:05.011Z,42.30
2019-05-12T14:48:33.588Z,41.20
2019-05-12T14:51:04.792Z,40.90
2019-05-12T14:53:38.392Z,41.60
2019-05-12T14:56:08.927Z,43.40
2019-05-12T14:58:40.685Z,43.20
2019-05-12T15:01:11.218Z,42.60
2019-05-12T15:03:42.390Z,43.50
2019-05-12T15:06:14.347Z,43.80
2019-05-12T15:08:45.419Z,44.60
2019-05-12T15:11:16.842Z,45.10
2019-05-12T15:13:47.980Z,45.10
2019-05-12T15:16:18.882Z,46.40
2019-05-12T15:18:50.251Z,47.80
2019-05-12T15:21:21.314Z,47.90
2019-05-12T15:23:54.218Z,47.80
2019-05-12T15:26:25.570Z,47.50
2019-05-12T15:28:56.253Z,47.00
2019-05-12T15:31:27.068Z,48.10
2019-05-12T15:33:57.920Z,48.20
2019-05-12T15:36:30.366Z,47.70
2019-05-12T15:39:00.875Z,47.40
2019-05-12T15:41:33.143Z,48.30
2019-05-12T15:44:06.494Z,48.60
2019-05-12T15:46:41.611Z,47.60
2019-05-12T15:49:09.715Z,48.00
2019-05-12T15:51:53.090Z,47.90
2019-05-12T15:54:14.608Z,48.60
2019-05-12T15:56:44.833Z,48.80
2019-05-12T15:59:17.455Z,49.10
2019-05-12T16:01:47.967Z,50.20
2019-05-12T16:04:18.857Z,49.70
2019-05-12T16:06:53.489Z,48.70
2019-05-12T16:09:23.798Z,48.10
2019-05-12T16:11:54.533Z,48.30
2019-05-12T16:14:30.623Z,48.70
2019-05-12T16:16:58.164Z,48.50
2019-05-12T16:19:28.813Z,48.10
2019-05-12T16:22:03.477Z,48.40
2019-05-12T16:24:34.126Z,49.70
2019-05-12T16:27:05.265Z,48.70
2019-05-12T16:29:38.856Z,48.70
2019-05-12T16:32:08.069Z,48.90
2019-05-12T16:34:44.836Z,48.90
2019-05-12T16:37:13.909Z,49.80
2019-05-12T16:39:47.261Z,50.00
2019-05-12T16:42:16.805Z,49.60
2019-05-12T16:44:48.704Z,49.90
2019-05-12T16:47:25.068Z,49.90
2019-05-12T16:49:53.939Z,49.40
2019-05-12T16:52:24.452Z,48.40
2019-05-12T16:54:55.541Z,48.20
2019-05-12T16:57:26.153Z,49.00
2019-05-12T17:00:03.603Z,49.70
2019-05-12T17:02:39.430Z,49.30
2019-05-12T17:05:06.637Z,49.90
2019-05-12T17:07:34.418Z,50.20
2019-05-12T17:10:15.893Z,49.80
2019-05-12T17:12:43.730Z,49.10
2019-05-12T17:15:15.318Z,48.90
2019-05-12T17:17:50.699Z,48.70
2019-05-12T17:20:18.722Z,48.30
2019-05-12T17:22:54.588Z,48.80
2019-05-12T17:25:23.770Z,49.20
2019-05-12T17:27:58.086Z,49.20
2019-05-12T17:30:29.239Z,49.10
2019-05-12T17:33:02.549Z,49.40
2019-05-12T17:35:34.869Z,50.00
2019-05-12T17:38:05.210Z,50.60
2019-05-12T17:40:36.364Z,50.30
2019-05-12T17:43:11.858Z,49.70
2019-05-12T17:45:39.648Z,50.00
2019-05-12T17:48:10.432Z,50.40
2019-05-12T17:50:46.698Z,50.50
2019-05-12T17:53:17.539Z,50.80
2019-05-12T17:55:50.990Z,50.80
2019-05-12T17:58:20.726Z,51.60
2019-05-12T18:00:51.966Z,51.80
2019-05-12T18:03:25.745Z,51.70
2019-05-12T18:05:56.452Z,51.70
2019-05-12T18:08:32.746Z,52.30
2019-05-12T18:10:59.982Z,52.60
2019-05-12T18:13:30.711Z,53.00
2019-05-12T18:16:05.338Z,53.40
2019-05-12T18:18:38.004Z,53.20
2019-05-12T18:21:05.792Z,53.60
2019-05-12T18:23:37.552Z,53.80
2019-05-12T18:26:14.359Z,54.70
2019-05-12T18:28:44.234Z,54.00
2019-05-12T18:31:17.580Z,53.60
2019-05-12T18:33:51.900Z,53.20
2019-05-12T18:36:20.381Z,52.90
2019-05-12T18:38:56.353Z,53.00
2019-05-12T18:41:24.434Z,53.40
2019-05-12T18:43:54.632Z,53.80
2019-05-12T18:46:25.671Z,54.20
2019-05-12T18:49:02.978Z,54.60
2019-05-12T18:51:28.727Z,55.30
2019-05-12T18:54:03.582Z,55.60
2019-05-12T18:56:33.698Z,56.20
2019-05-12T18:59:11.345Z,56.80
2019-05-12T19:01:37.371Z,57.50
2019-05-12T19:04:08.353Z,58.00
2019-05-12T19:06:38.951Z,58.40
2019-05-12T19:09:10.319Z,58.80
2019-05-12T19:11:42.275Z,59.00
2019-05-12T19:14:14.067Z,59.30
2019-05-12T19:16:45.795Z,59.60
2019-05-12T19:19:20.057Z,60.00
2019-05-12T19:21:58.848Z,60.50
2019-05-12T19:24:20.457Z,61.00
2019-05-12T19:26:53.982Z,61.00
2019-05-12T19:29:24.517Z,61.00
2019-05-12T19:31:58.012Z,61.30
2019-05-12T19:34:31.743Z,61.50
2019-05-12T19:37:03.339Z,62.00
2019-05-12T19:39:34.003Z,62.10
2019-05-12T19:42:05.049Z,62.50
2019-05-12T19:44:36.007Z,62.90
2019-05-12T19:47:06.273Z,63.10
2019-05-12T19:49:46.666Z,63.30
2019-05-12T19:52:09.451Z,63.50
2019-05-12T19:54:40.032Z,63.80
2019-05-12T19:57:15.104Z,64.30
2019-05-12T19:59:50.506Z,64.50
2019-05-12T20:02:16.237Z,64.80
2019-05-12T20:04:52.039Z,65.10
2019-05-12T20:07:19.217Z,65.20
2019-05-12T20:09:55.996Z,65.20
2019-05-12T20:12:23.975Z,65.60
2019-05-12T20:14:56.904Z,65.70
2019-05-12T20:17:27.022Z,66.00
2019-05-12T20:19:58.023Z,66.10
2019-05-12T20:22:28.754Z,66.40
2019-05-12T20:24:59.703Z,66.80
2019-05-12T20:27:30.247Z,67.10
2019-05-12T20:30:01.057Z,67.40
2019-05-12T20:32:34.394Z,67.40
2019-05-12T20:35:06.952Z,67.40
2019-05-12T20:37:37.906Z,67.50
2019-05-12T20:40:10.066Z,67.70
2019-05-12T20:42:44.203Z,68.00
2019-05-12T20:45:15.238Z,68.50
2019-05-12T20:47:47.608Z,68.70
2019-05-12T20:50:25.965Z,68.90
2019-05-12T20:52:58.518Z,69.10
2019-05-12T20:55:24.738Z,69.50
2019-05-12T20:57:56.905Z,69.90
2019-05-12T21:00:28.057Z,70.20
2019-05-12T21:02:59.212Z,70.80
2019-05-12T21:05:30.923Z,71.80
2019-05-12T21:08:05.424Z,71.30
2019-05-12T21:10:34.703Z,71.50
2019-05-12T21:13:05.164Z,71.80
2019-05-12T21:15:42.797Z,72.30
2019-05-12T21:18:10.408Z,72.90
2019-05-12T21:20:46.372Z,73.10
2019-05-12T21:23:14.524Z,73.50
2019-05-12T21:25:52.194Z,73.80
2019-05-12T21:28:16.554Z,74.10
2019-05-12T21:30:49.646Z,74.50
2019-05-12T21:33:20.562Z,74.60
2019-05-12T21:35:54.048Z,75.10
2019-05-12T21:38:29.428Z,75.30
2019-05-12T21:40:56.590Z,75.90
2019-05-12T21:43:27.000Z,76.20
2019-05-12T21:46:01.045Z,76.30
2019-05-12T21:48:30.520Z,76.70
2019-05-12T21:51:00.786Z,77.00
2019-05-12T21:53:31.599Z,77.50
2019-05-12T21:56:04.218Z,77.80
2019-05-12T21:58:34.498Z,78.00
2019-05-12T22:01:07.677Z,78.30
2019-05-12T22:03:38.232Z,78.70
2019-05-12T22:06:16.736Z,79.00
2019-05-12T22:08:41.566Z,79.10
2019-05-12T22:11:12.488Z,79.50
2019-05-12T22:13:47.206Z,79.90
2019-05-12T22:16:15.611Z,80.10
2019-05-12T22:18:47.873Z,80.50
2019-05-12T22:21:19.126Z,80.80
2019-05-12T22:23:51.443Z,81.20
2019-05-12T22:26:22.249Z,81.40
2019-05-12T22:28:53.701Z,81.90
2019-05-12T22:31:25.363Z,82.40
2019-05-12T22:33:56.549Z,82.80
2019-05-12T22:36:30.098Z,84.30
2019-05-12T22:39:01.052Z,84.60
2019-05-12T22:41:36.966Z,85.00
2019-05-12T22:44:06.575Z,85.60
2019-05-12T22:46:37.525Z,85.90
2019-05-12T22:49:10.515Z,86.40
2019-05-12T22:51:40.890Z,86.80
2019-05-12T22:54:13.541Z,87.00
2019-05-12T22:56:49.486Z,87.20
2019-05-12T22:59:17.011Z,87.40
2019-05-12T23:01:48.351Z,88.50
2019-05-12T23:04:18.686Z,88.00
2019-05-12T23:06:50.045Z,88.40
2019-05-12T23:09:26.019Z,88.60
2019-05-12T23:11:53.774Z,88.90
2019-05-12T23:14:25.126Z,89.20
2019-05-12T23:17:00.211Z,89.40
2019-05-12T23:19:27.753Z,89.70
2019-05-12T23:21:59.053Z,90.00
2019-05-12T23:24:30.515Z,90.10
2019-05-12T23:27:04.663Z,90.30
2019-05-12T23:29:34.699Z,90.30
2019-05-12T23:32:10.442Z,90.50
2019-05-12T23:34:38.536Z,90.70
2019-05-12T23:37:09.553Z,90.80
2019-05-12T23:39:40.088Z,90.90
2019-05-12T23:42:10.781Z,91.20
2019-05-12T23:44:44.191Z,91.30
2019-05-12T23:47:15.783Z,91.60
2019-05-12T23:49:46.103Z,91.90
2019-05-12T23:52:17.460Z,92.10
2019-05-12T23:54:47.792Z,92.40
2019-05-12T23:57:18.525Z,92.60
2019-05-12T23:59:49.257Z,92.90
